createdAt,value
2019-06-01T00:00:49.949Z,100.0
2019-06-01T00:02:57.884Z,100.0
2019-06-01T00:04:50.538Z,100.0
2019-06-01T00:06:49.924Z,100.0
2019-06-01T00:08:50.109Z,100.0
2019-06-01T00:10:50.153Z,100.0
2019-06-01T00:12:50.284Z,100.0
2019-06-01T00:14:50.506Z,100.0
2019-06-01T00:16:50.856Z,100.0
2019-06-01T00:18:50.775Z,100.0
2019-06-01T00:20:51.122Z,100.0
2019-06-01T00:22:51.873Z,100.0
2019-06-01T00:24:50.456Z,100.0
2019-06-01T00:26:50.307Z,100.0
2019-06-01T00:28:50.429Z,100.0
2019-06-01T00:30:50.600Z,100.0
2019-06-01T00:32:51.756Z,100.0
2019-06-01T00:34:50.423Z,100.0
2019-06-01T00:36:52.114Z,100.0
2019-06-01T00:38:50.395Z,100.0
2019-06-01T00:40:50.520Z,100.0
2019-06-01T00:42:50.673Z,100.0
2019-06-01T00:44:50.875Z,100.0
2019-06-01T00:46:51.158Z,100.0
2019-06-01T00:48:50.407Z,100.0
2019-06-01T00:50:51.440Z,100.0
2019-06-01T00:52:51.795Z,100.0
2019-06-01T00:54:49.948Z,100.0
2019-06-01T00:56:50.109Z,100.0
2019-06-01T00:58:50.265Z,100.0
2019-06-01T01:00:55.532Z,100.0
2019-06-01T01:02:50.723Z,100.0
2019-06-01T01:04:50.786Z,100.0
2019-06-01T01:06:52.688Z,100.0
2019-06-01T01:08:51.312Z,100.0
2019-06-01T01:10:51.500Z,100.0
2019-06-01T01:12:51.580Z,100.0
2019-06-01T01:14:51.051Z,100.0
2019-06-01T01:16:52.000Z,100.0
2019-06-01T01:18:50.220Z,100.0
2019-06-01T01:20:50.428Z,100.0
2019-06-01T01:22:50.717Z,100.0
2019-06-01T01:24:50.936Z,100.0
2019-06-01T01:26:50.926Z,100.0
2019-06-01T01:28:51.098Z,100.0
2019-06-01T01:31:14.633Z,100.0
2019-06-01T01:32:53.683Z,100.0
2019-06-01T01:34:51.898Z,100.0
2019-06-01T01:36:50.229Z,100.0
2019-06-01T01:38:52.630Z,100.0
2019-06-01T01:40:52.011Z,100.0
2019-06-01T01:42:52.260Z,100.0
2019-06-01T01:44:50.896Z,100.0
2019-06-01T01:46:51.111Z,100.0
2019-06-01T01:48:50.310Z,100.0
2019-06-01T01:50:50.606Z,100.0
2019-06-01T01:52:51.054Z,100.0
2019-06-01T01:54:51.030Z,100.0
2019-06-01T01:56:50.380Z,100.0
2019-06-01T01:58:50.759Z,100.0
2019-06-01T02:00:49.956Z,100.0
2019-06-01T02:02:51.753Z,100.0
2019-06-01T02:04:52.006Z,100.0
2019-06-01T02:06:50.213Z,100.0
2019-06-01T02:08:51.401Z,100.0
2019-06-01T02:10:51.600Z,100.0
2019-06-01T02:12:51.730Z,100.0
2019-06-01T02:14:49.975Z,100.0
2019-06-01T02:16:50.268Z,100.0
2019-06-01T02:18:53.791Z,100.0
2019-06-01T02:20:50.423Z,100.0
2019-06-01T02:22:50.613Z,100.0
2019-06-01T02:24:50.844Z,100.0
2019-06-01T02:26:50.208Z,100.0
2019-06-01T02:28:50.430Z,100.0
2019-06-01T02:30:50.794Z,100.0
2019-06-01T02:32:49.989Z,100.0
2019-06-01T02:34:50.582Z,100.0
2019-06-01T02:36:49.906Z,100.0
2019-06-01T02:38:50.091Z,100.0
2019-06-01T02:40:50.156Z,100.0
2019-06-01T02:42:50.348Z,100.0
2019-06-01T02:44:50.494Z,100.0
2019-06-01T02:46:50.758Z,100.0
2019-06-01T02:48:49.905Z,100.0
2019-06-01T02:50:50.020Z,100.0
2019-06-01T02:52:50.137Z,100.0
2019-06-01T02:54:50.245Z,100.0
2019-06-01T02:56:50.565Z,100.0
2019-06-01T02:58:50.722Z,100.0
2019-06-01T03:00:49.854Z,100.0
2019-06-01T03:02:49.989Z,100.0
2019-06-01T03:04:50.416Z,100.0
2019-06-01T03:06:50.680Z,100.0
2019-06-01T03:08:49.849Z,100.0
2019-06-01T03:10:49.884Z,100.0
2019-06-01T03:12:50.069Z,100.0
2019-06-01T03:14:50.180Z,100.0
2019-06-01T03:16:50.398Z,100.0
2019-06-01T03:18:50.539Z,100.0
2019-06-01T03:20:50.630Z,100.0
2019-06-01T03:22:49.807Z,100.0
2019-06-01T03:24:49.920Z,100.0
2019-06-01T03:26:50.322Z,100.0
2019-06-01T03:28:50.441Z,100.0
2019-06-01T03:30:50.629Z,100.0
2019-06-01T03:32:50.715Z,100.0
2019-06-01T03:34:50.348Z,100.0
2019-06-01T03:36:50.653Z,100.0
2019-06-01T03:38:50.985Z,100.0
2019-06-01T03:40:50.140Z,100.0
2019-06-01T03:42:50.386Z,100.0
2019-06-01T03:44:50.535Z,100.0
2019-06-01T03:46:50.002Z,100.0
2019-06-01T03:48:50.051Z,100.0
2019-06-01T03:50:50.119Z,100.0
2019-06-01T03:52:50.173Z,100.0
2019-06-01T03:54:50.310Z,100.0
2019-06-01T03:56:50.446Z,100.0
2019-06-01T03:58:50.559Z,100.0
2019-06-01T04:00:50.683Z,100.0
2019-06-01T04:02:49.762Z,100.0
2019-06-01T04:04:50.393Z,100.0
2019-06-01T04:06:50.700Z,100.0
2019-06-01T04:08:50.738Z,100.0
2019-06-01T04:10:49.922Z,100.0
2019-06-01T04:12:49.960Z,100.0
2019-06-01T04:14:50.036Z,100.0
2019-06-01T04:16:50.374Z,100.0
2019-06-01T04:18:50.478Z,100.0
2019-06-01T04:20:50.661Z,100.0
2019-06-01T04:22:50.727Z,100.0
2019-06-01T04:24:49.845Z,100.0
2019-06-01T04:26:50.230Z,100.0
2019-06-01T04:28:50.476Z,100.0
2019-06-01T04:30:50.708Z,100.0
2019-06-01T04:32:51.011Z,100.0
2019-06-01T04:34:50.529Z,100.0
2019-06-01T04:36:49.859Z,100.0
2019-06-01T04:38:49.961Z,100.0
2019-06-01T04:40:50.043Z,100.0
2019-06-01T04:42:50.163Z,100.0
2019-06-01T04:44:50.316Z,100.0
2019-06-01T04:46:50.533Z,100.0
2019-06-01T04:48:50.715Z,100.0
2019-06-01T04:50:49.884Z,100.0
2019-06-01T04:52:50.025Z,100.0
2019-06-01T04:54:50.105Z,100.0
2019-06-01T04:56:50.528Z,100.0
2019-06-01T04:58:50.744Z,100.0
2019-06-01T05:00:49.817Z,100.0
2019-06-01T05:03:11.626Z,100.0
2019-06-01T05:04:50.686Z,100.0
2019-06-01T05:06:49.905Z,100.0
2019-06-01T05:08:50.062Z,99.2
2019-06-01T05:10:50.150Z,99.6
2019-06-01T05:12:50.316Z,99.1
2019-06-01T05:14:50.394Z,98.5
2019-06-01T05:16:50.913Z,97.9
2019-06-01T05:18:50.022Z,97.5
2019-06-01T05:20:50.432Z,96.2
2019-06-01T05:22:50.749Z,96.2
2019-06-01T05:24:49.954Z,94.9
2019-06-01T05:26:50.352Z,93.8
2019-06-01T05:28:50.467Z,93.7
2019-06-01T05:30:50.562Z,93.6
2019-06-01T05:32:50.669Z,93.4
2019-06-01T05:34:50.403Z,92.0
2019-06-01T05:36:50.411Z,91.8
2019-06-01T05:38:50.671Z,90.8
2019-06-01T05:40:50.750Z,90.0
2019-06-01T05:42:49.927Z,89.7
2019-06-01T05:44:50.004Z,88.1
2019-06-01T05:46:50.375Z,88.5
2019-06-01T05:48:50.430Z,87.6
2019-06-01T05:50:50.678Z,86.7
2019-06-01T05:52:49.835Z,87.5
2019-06-01T05:54:50.026Z,87.8
2019-06-01T05:56:50.228Z,87.5
2019-06-01T05:58:50.424Z,85.7
2019-06-01T06:00:50.694Z,86.2
2019-06-01T06:02:49.804Z,85.0
2019-06-01T06:04:50.371Z,85.0
2019-06-01T06:06:50.622Z,84.4
2019-06-01T06:08:50.848Z,84.4
2019-06-01T06:10:49.846Z,84.1
2019-06-01T06:12:50.024Z,83.9
2019-06-01T06:14:50.170Z,82.3
2019-06-01T06:16:50.385Z,81.8
2019-06-01T06:18:50.521Z,82.0
2019-06-01T06:20:50.534Z,80.4
2019-06-01T06:22:50.621Z,81.2
2019-06-01T06:24:50.708Z,81.3
2019-06-01T06:26:50.009Z,80.3
2019-06-01T06:28:50.038Z,80.3
2019-06-01T06:30:50.188Z,78.9
2019-06-01T06:32:50.315Z,78.8
2019-06-01T06:34:49.919Z,77.7
2019-06-01T06:36:50.313Z,78.4
2019-06-01T06:38:50.472Z,77.2
2019-06-01T06:40:50.610Z,76.6
2019-06-01T06:42:50.743Z,76.1
2019-06-01T06:44:49.818Z,75.7
2019-06-01T06:46:50.137Z,75.6
2019-06-01T06:48:50.260Z,73.1
2019-06-01T06:50:50.382Z,73.1
2019-06-01T06:52:50.527Z,72.8
2019-06-01T06:54:50.787Z,74.8
2019-06-01T06:56:50.061Z,73.2
2019-06-01T06:58:50.270Z,71.1
2019-06-01T07:00:50.367Z,71.1
2019-06-01T07:02:50.641Z,70.8
2019-06-01T07:04:50.341Z,65
2019-06-01T07:06:50.508Z,65
2019-06-01T07:08:50.625Z,65
2019-06-01T07:10:50.770Z,64
2019-06-01T07:12:49.856Z,64
2019-06-01T07:14:50.094Z,64
2019-06-01T07:16:50.369Z,64
2019-06-01T07:18:50.430Z,64
2019-06-01T07:20:50.609Z,64
2019-06-01T07:22:50.780Z,64
2019-06-01T07:24:49.842Z,63
2019-06-01T07:26:50.246Z,63
2019-06-01T07:28:50.451Z,63
2019-06-01T07:30:51.240Z,63
2019-06-01T07:32:50.441Z,63
2019-06-01T07:34:50.135Z,63
2019-06-01T07:36:50.506Z,63
2019-06-01T07:38:50.758Z,63
2019-06-01T07:40:50.078Z,63
2019-06-01T07:42:50.180Z,63
2019-06-01T07:44:50.329Z,63
2019-06-01T07:46:50.506Z,63
2019-06-01T07:48:50.639Z,62
2019-06-01T07:50:50.670Z,61.0
2019-06-01T07:52:49.821Z,60.3
2019-06-01T07:54:49.936Z,61.3
2019-06-01T07:56:50.179Z,61.0
2019-06-01T07:58:50.302Z,61.3
2019-06-01T08:00:50.382Z,60
2019-06-01T08:02:50.411Z,60
2019-06-01T08:04:55.254Z,60
2019-06-01T08:06:50.749Z,60
2019-06-01T08:08:49.914Z,59
2019-06-01T08:10:50.090Z,59
2019-06-01T08:12:50.134Z,59
2019-06-01T08:14:50.214Z,59
2019-06-01T08:16:50.546Z,59
2019-06-01T08:18:53.849Z,59
2019-06-01T08:20:49.978Z,59
2019-06-01T08:22:50.083Z,59
2019-06-01T08:24:50.266Z,59
2019-06-01T08:26:50.603Z,59
2019-06-01T08:28:49.795Z,59
2019-06-01T08:30:49.869Z,59
2019-06-01T08:32:50.121Z,59
2019-06-01T08:35:10.025Z,59
2019-06-01T08:36:49.830Z,59
2019-06-01T08:38:49.913Z,59
2019-06-01T08:40:50.075Z,58
2019-06-01T08:42:50.234Z,58
2019-06-01T08:44:50.320Z,58
2019-06-01T08:46:50.591Z,57
2019-06-01T08:48:50.647Z,57
2019-06-01T08:50:50.712Z,57
2019-06-01T08:52:49.899Z,57
2019-06-01T08:54:49.919Z,56
2019-06-01T08:56:50.153Z,56
2019-06-01T08:58:50.306Z,56
2019-06-01T09:00:50.558Z,55
2019-06-01T09:02:50.634Z,55
2019-06-01T09:04:50.205Z,55
2019-06-01T09:06:50.405Z,56
2019-06-01T09:08:50.615Z,55
2019-06-01T09:10:50.681Z,55
2019-06-01T09:12:49.860Z,55
2019-06-01T09:14:49.967Z,55
2019-06-01T09:16:50.200Z,54
2019-06-01T09:18:50.328Z,54
2019-06-01T09:20:50.471Z,54
2019-06-01T09:22:50.577Z,51
2019-06-01T09:24:53.973Z,51
2019-06-01T09:26:50.202Z,51
2019-06-01T09:28:50.326Z,52
2019-06-01T09:30:50.434Z,52
2019-06-01T09:32:50.573Z,50
2019-06-01T09:34:50.245Z,50
2019-06-01T09:36:50.412Z,51
2019-06-01T09:38:50.508Z,51
2019-06-01T09:40:50.887Z,51
2019-06-01T09:42:50.010Z,51
2019-06-01T09:44:50.074Z,50
2019-06-01T09:46:50.407Z,51
2019-06-01T09:48:50.478Z,50
2019-06-01T09:50:50.630Z,49
2019-06-01T09:52:49.808Z,49
2019-06-01T09:54:49.925Z,49
2019-06-01T09:56:50.169Z,49
2019-06-01T09:58:50.282Z,50
2019-06-01T10:00:50.396Z,50
2019-06-01T10:02:50.457Z,50
2019-06-01T10:04:50.003Z,49
2019-06-01T10:06:50.104Z,49
2019-06-01T10:08:50.169Z,49
2019-06-01T10:10:50.265Z,48
2019-06-01T10:12:50.452Z,48
2019-06-01T10:14:50.515Z,49
2019-06-01T10:16:49.778Z,49
2019-06-01T10:18:49.860Z,48
2019-06-01T10:20:49.926Z,48
2019-06-01T10:22:50.108Z,49
2019-06-01T10:24:50.266Z,48
2019-06-01T10:26:50.558Z,48
2019-06-01T10:28:50.717Z,48
2019-06-01T10:30:50.811Z,48
2019-06-01T10:32:49.877Z,48
2019-06-01T10:34:50.404Z,48
2019-06-01T10:36:50.773Z,48
2019-06-01T10:38:49.989Z,47
2019-06-01T10:40:50.077Z,47
2019-06-01T10:42:50.309Z,48
2019-06-01T10:44:50.401Z,48
2019-06-01T10:46:50.613Z,47
2019-06-01T10:48:50.952Z,47
2019-06-01T10:50:50.150Z,47
2019-06-01T10:52:50.374Z,47
2019-06-01T10:54:50.578Z,47
2019-06-01T10:56:50.591Z,47
2019-06-01T10:59:01.045Z,47
2019-06-01T11:00:52.195Z,47
2019-06-01T11:02:50.332Z,47
2019-06-01T11:04:50.006Z,47
2019-06-01T11:06:50.210Z,47
2019-06-01T11:08:50.345Z,47
2019-06-01T11:10:50.499Z,47
2019-06-01T11:12:50.799Z,46
2019-06-01T11:14:50.103Z,46
2019-06-01T11:16:57.248Z,46
2019-06-01T11:18:50.424Z,45
2019-06-01T11:20:50.511Z,44
2019-06-01T11:22:50.643Z,44
2019-06-01T11:24:50.726Z,44
2019-06-01T11:26:50.222Z,44
2019-06-01T11:28:50.399Z,44
2019-06-01T11:30:50.592Z,45
2019-06-01T11:32:50.650Z,45
2019-06-01T11:34:50.327Z,45
2019-06-01T11:37:06.102Z,45
2019-06-01T11:38:50.667Z,45
2019-06-01T11:40:49.801Z,43
2019-06-01T11:42:49.893Z,44
2019-06-01T11:44:50.109Z,44
2019-06-01T11:46:51.174Z,44
2019-06-01T11:48:50.450Z,44
2019-06-01T11:50:50.663Z,44
2019-06-01T11:52:49.827Z,43
2019-06-01T11:54:50.062Z,43
2019-06-01T11:56:50.288Z,43
2019-06-01T11:58:50.415Z,42
2019-06-01T12:00:50.524Z,42
2019-06-01T12:02:50.607Z,42
2019-06-01T12:04:50.225Z,41
2019-06-01T12:06:50.661Z,42
2019-06-01T12:08:50.743Z,41
2019-06-01T12:10:49.835Z,41
2019-06-01T12:12:50.108Z,41
2019-06-01T12:14:50.322Z,41
2019-06-01T12:16:50.659Z,41
2019-06-01T12:18:49.844Z,41
2019-06-01T12:20:50.154Z,41
2019-06-01T12:22:50.243Z,41
2019-06-01T12:24:50.402Z,41
2019-06-01T12:26:50.513Z,41
2019-06-01T12:28:50.735Z,41
2019-06-01T12:30:49.888Z,41
2019-06-01T12:32:49.951Z,39
2019-06-01T12:34:50.665Z,38
2019-06-01T12:36:50.013Z,40
2019-06-01T12:38:50.098Z,40
2019-06-01T12:40:51.320Z,40
2019-06-01T12:42:52.294Z,40
2019-06-01T12:44:50.384Z,40
2019-06-01T12:46:50.595Z,38
2019-06-01T12:48:50.767Z,38
2019-06-01T12:50:52.757Z,38
2019-06-01T12:52:49.949Z,38
2019-06-01T12:54:50.041Z,39
2019-06-01T12:56:50.317Z,38
2019-06-01T12:58:50.469Z,38
2019-06-01T13:00:50.515Z,38
2019-06-01T13:03:08.246Z,38
2019-06-01T13:04:50.031Z,38
2019-06-01T13:06:54.473Z,38
2019-06-01T13:08:50.593Z,38
2019-06-01T13:10:52.172Z,38
2019-06-01T13:12:52.579Z,37
2019-06-01T13:14:52.613Z,38
2019-06-01T13:17:08.176Z,38
2019-06-01T13:18:49.953Z,37
2019-06-01T13:20:50.075Z,37
2019-06-01T13:22:51.586Z,38
2019-06-01T13:24:51.877Z,38
2019-06-01T13:26:51.597Z,38
2019-06-01T13:28:50.869Z,37
2019-06-01T13:30:53.270Z,37
2019-06-01T13:32:52.888Z,36
2019-06-01T13:34:51.768Z,36
2019-06-01T13:36:51.246Z,37
2019-06-01T13:38:51.225Z,37
2019-06-01T13:40:51.460Z,38
2019-06-01T13:42:51.672Z,37
2019-06-01T13:44:49.974Z,37
2019-06-01T13:46:51.414Z,37
2019-06-01T13:48:54.527Z,39
2019-06-01T13:50:50.528Z,38
2019-06-01T13:52:50.598Z,38
2019-06-01T13:54:51.008Z,39
2019-06-01T13:56:51.378Z,39
2019-06-01T13:58:50.743Z,39
2019-06-01T14:00:54.599Z,39
2019-06-01T14:02:58.069Z,39
2019-06-01T14:04:52.268Z,39
2019-06-01T14:06:51.607Z,38
2019-06-01T14:08:51.515Z,38
2019-06-01T14:10:51.650Z,38
2019-06-01T14:12:49.877Z,38
2019-06-01T14:14:49.934Z,38
2019-06-01T14:16:51.958Z,38
2019-06-01T14:18:50.069Z,38
2019-06-01T14:20:51.704Z,38
2019-06-01T14:22:50.268Z,38
2019-06-01T14:25:15.566Z,38
2019-06-01T14:26:50.510Z,38
2019-06-01T14:28:50.582Z,39
2019-06-01T14:30:50.730Z,38
2019-06-01T14:32:50.834Z,38
2019-06-01T14:34:54.993Z,38
2019-06-01T14:36:50.947Z,39
2019-06-01T14:38:58.988Z,38
2019-06-01T14:40:55.266Z,38
2019-06-01T14:42:53.750Z,38
2019-06-01T14:44:49.850Z,38
2019-06-01T14:47:06.532Z,38
2019-06-01T14:48:51.893Z,38
2019-06-01T14:50:49.949Z,38
2019-06-01T14:52:50.082Z,38
2019-06-01T14:54:51.666Z,38
2019-06-01T14:56:50.135Z,38
2019-06-01T14:58:50.314Z,38
2019-06-01T15:00:50.669Z,38
2019-06-01T15:02:51.835Z,38
2019-06-01T15:04:50.714Z,38
2019-06-01T15:06:50.652Z,37
2019-06-01T15:09:20.180Z,38
2019-06-01T15:10:56.642Z,38
2019-06-01T15:13:03.718Z,38
2019-06-01T15:14:51.351Z,38
2019-06-01T15:16:54.119Z,38
2019-06-01T15:18:51.645Z,38
2019-06-01T15:20:50.095Z,38
2019-06-01T15:22:50.452Z,38
2019-06-01T15:24:51.980Z,38
2019-06-01T15:26:50.852Z,38
2019-06-01T15:28:53.500Z,37
2019-06-01T15:30:51.260Z,37
2019-06-01T15:32:50.500Z,38
2019-06-01T15:34:50.797Z,37
2019-06-01T15:36:51.697Z,37
2019-06-01T15:38:49.878Z,37
2019-06-01T15:40:50.086Z,37
2019-06-01T15:42:55.394Z,37
2019-06-01T15:44:51.376Z,37
2019-06-01T15:46:51.922Z,37
2019-06-01T15:48:51.737Z,36
2019-06-01T15:50:49.907Z,37
2019-06-01T15:52:50.048Z,37
2019-06-01T15:54:50.177Z,37
2019-06-01T15:56:50.590Z,35
2019-06-01T15:59:01.678Z,35
2019-06-01T16:00:50.732Z,36
2019-06-01T16:02:49.916Z,35
2019-06-01T16:04:50.448Z,36
2019-06-01T16:06:50.756Z,36
2019-06-01T16:08:49.933Z,35
2019-06-01T16:10:50.092Z,35
2019-06-01T16:12:50.314Z,36
2019-06-01T16:14:50.493Z,35
2019-06-01T16:16:50.750Z,35
2019-06-01T16:18:49.812Z,36
2019-06-01T16:20:50.013Z,35
2019-06-01T16:22:50.127Z,35
2019-06-01T16:24:50.348Z,35
2019-06-01T16:26:50.550Z,35
2019-06-01T16:28:50.644Z,35
2019-06-01T16:30:49.834Z,34
2019-06-01T16:32:49.885Z,34
2019-06-01T16:34:50.632Z,34
2019-06-01T16:36:50.046Z,34
2019-06-01T16:38:50.102Z,34
2019-06-01T16:40:50.238Z,35
2019-06-01T16:42:50.438Z,35
2019-06-01T16:44:50.566Z,35
2019-06-01T16:46:49.898Z,35
2019-06-01T16:48:50.047Z,35
2019-06-01T16:50:50.128Z,35
2019-06-01T16:52:50.337Z,35
2019-06-01T16:54:50.490Z,35
2019-06-01T16:56:50.735Z,35
2019-06-01T16:58:49.892Z,34
2019-06-01T17:00:49.976Z,35
2019-06-01T17:02:50.138Z,35
2019-06-01T17:04:50.756Z,35
2019-06-01T17:06:50.134Z,35
2019-06-01T17:08:50.302Z,33
2019-06-01T17:10:50.472Z,33
2019-06-01T17:12:50.621Z,33
2019-06-01T17:14:50.727Z,33
2019-06-01T17:16:49.909Z,30.5
2019-06-01T17:18:50.111Z,30.9
2019-06-01T17:20:50.360Z,32.6
2019-06-01T17:22:50.503Z,32.9
2019-06-01T17:24:50.726Z,33.1
2019-06-01T17:26:49.984Z,33.8
2019-06-01T17:28:49.985Z,33.1
2019-06-01T17:30:50.677Z,33.2
2019-06-01T17:32:49.944Z,32.8
2019-06-01T17:34:50.557Z,35.1
2019-06-01T17:36:49.769Z,33.9
2019-06-01T17:38:49.918Z,33.9
2019-06-01T17:40:49.967Z,34.0
2019-06-01T17:42:50.071Z,34.3
2019-06-01T17:44:50.179Z,33.3
2019-06-01T17:46:54.556Z,33.9
2019-06-01T17:48:50.647Z,33.7
2019-06-01T17:50:49.834Z,35.0
2019-06-01T17:52:50.001Z,36.7
2019-06-01T17:54:50.081Z,35.7
2019-06-01T17:56:50.313Z,36.1
2019-06-01T17:58:50.442Z,36.4
2019-06-01T18:00:50.598Z,37.7
2019-06-01T18:02:50.693Z,36.2
2019-06-01T18:04:50.378Z,36.4
2019-06-01T18:06:50.624Z,36.7
2019-06-01T18:08:50.719Z,37.1
2019-06-01T18:10:55.523Z,37.1
2019-06-01T18:12:50.709Z,37.0
2019-06-01T18:14:49.818Z,37.6
2019-06-01T18:16:50.244Z,37.9
2019-06-01T18:18:50.352Z,38.5
2019-06-01T18:20:50.406Z,38.6
2019-06-01T18:22:50.576Z,39.0
2019-06-01T18:24:50.730Z,39.6
2019-06-01T18:26:49.942Z,39.7
2019-06-01T18:28:50.106Z,39.8
2019-06-01T18:30:50.176Z,41.8
2019-06-01T18:32:50.291Z,40.8
2019-06-01T18:34:49.781Z,43.9
2019-06-01T18:36:50.078Z,44.8
2019-06-01T18:38:50.330Z,45.2
2019-06-01T18:40:50.486Z,45.1
2019-06-01T18:42:50.610Z,45.1
2019-06-01T18:44:50.757Z,46.2
2019-06-01T18:46:50.096Z,46.2
2019-06-01T18:48:50.115Z,46.7
2019-06-01T18:50:50.364Z,46.6
2019-06-01T18:52:50.517Z,48.3
2019-06-01T18:54:50.547Z,48.0
2019-06-01T18:56:49.899Z,50.5
2019-06-01T18:58:49.998Z,48.8
2019-06-01T19:00:50.096Z,48.3
2019-06-01T19:02:50.344Z,49.5
2019-06-01T19:04:50.008Z,50.6
2019-06-01T19:06:50.293Z,51.9
2019-06-01T19:08:50.348Z,53.4
2019-06-01T19:10:51.680Z,54.7
2019-06-01T19:12:50.778Z,55.6
2019-06-01T19:14:49.871Z,55.6
2019-06-01T19:16:50.217Z,55.1
2019-06-01T19:18:50.341Z,56.1
2019-06-01T19:20:50.372Z,56.5
2019-06-01T19:22:50.820Z,58.0
2019-06-01T19:24:49.834Z,58.0
2019-06-01T19:26:50.111Z,59.7
2019-06-01T19:28:50.283Z,59.2
2019-06-01T19:30:50.349Z,59.2
2019-06-01T19:32:50.477Z,59.5
2019-06-01T19:34:50.103Z,59.5
2019-06-01T19:36:50.441Z,61.1
2019-06-01T19:38:50.560Z,61.5
2019-06-01T19:40:50.755Z,62.2
2019-06-01T19:42:49.882Z,61.8
2019-06-01T19:44:50.083Z,64.5
2019-06-01T19:46:50.286Z,63.3
2019-06-01T19:48:50.451Z,63.8
2019-06-01T19:50:50.471Z,64.6
2019-06-01T19:52:50.628Z,63.4
2019-06-01T19:54:50.933Z,63.0
2019-06-01T19:56:50.305Z,62.9
2019-06-01T19:58:50.375Z,64.0
2019-06-01T20:00:50.557Z,64.4
2019-06-01T20:02:50.693Z,64.1
2019-06-01T20:04:50.501Z,64.5
2019-06-01T20:06:50.716Z,66.4
2019-06-01T20:08:49.867Z,66.2
2019-06-01T20:10:49.913Z,65.2
2019-06-01T20:12:50.029Z,66.9
2019-06-01T20:14:50.122Z,68.1
2019-06-01T20:16:50.375Z,68.2
2019-06-01T20:18:50.464Z,67.5
2019-06-01T20:20:50.695Z,68.7
2019-06-01T20:22:50.725Z,68.8
2019-06-01T20:24:49.904Z,68.7
2019-06-01T20:26:50.189Z,68.2
2019-06-01T20:28:50.359Z,68.8
2019-06-01T20:30:50.629Z,70.3
2019-06-01T20:32:49.849Z,71.2
2019-06-01T20:34:50.616Z,71.4
2019-06-01T20:36:49.934Z,71.7
2019-06-01T20:38:49.988Z,71.4
2019-06-01T20:40:50.111Z,72.2
2019-06-01T20:42:50.241Z,72.4
2019-06-01T20:44:50.428Z,73.0
2019-06-01T20:46:50.690Z,73.1
2019-06-01T20:48:49.822Z,73.1
2019-06-01T20:50:49.916Z,73.2
2019-06-01T20:52:49.983Z,73.7
2019-06-01T20:54:50.142Z,74.2
2019-06-01T20:56:50.509Z,74.2
2019-06-01T20:58:50.523Z,74.6
2019-06-01T21:00:50.618Z,74.7
2019-06-01T21:02:50.702Z,75.2
2019-06-01T21:04:50.503Z,75.5
2019-06-01T21:06:49.824Z,75.7
2019-06-01T21:08:50.029Z,75.7
2019-06-01T21:10:50.133Z,76.4
2019-06-01T21:12:50.353Z,76.9
2019-06-01T21:14:50.466Z,77.0
2019-06-01T21:16:51.134Z,77.1
2019-06-01T21:18:50.398Z,77.4
2019-06-01T21:20:50.629Z,78.1
2019-06-01T21:22:50.764Z,78.4
2019-06-01T21:24:49.990Z,78.9
2019-06-01T21:26:50.204Z,79.0
2019-06-01T21:28:50.314Z,78.5
2019-06-01T21:30:50.518Z,78.5
2019-06-01T21:32:50.606Z,78.5
2019-06-01T21:34:50.269Z,79.1
2019-06-01T21:36:50.508Z,79.2
2019-06-01T21:38:50.654Z,80.1
2019-06-01T21:40:49.810Z,80.0
2019-06-01T21:43:32.108Z,80.9
2019-06-01T21:44:49.910Z,81.2
2019-06-01T21:46:50.348Z,81.8
2019-06-01T21:48:50.486Z,81.8
2019-06-01T21:50:50.653Z,82.5
2019-06-01T21:52:49.822Z,82.5
2019-06-01T21:54:49.848Z,83.1
2019-06-01T21:56:50.190Z,84.0
2019-06-01T21:58:50.382Z,84.5
2019-06-01T22:00:50.427Z,84.2
2019-06-01T22:02:50.581Z,84.2
2019-06-01T22:04:50.251Z,84.6
2019-06-01T22:06:50.537Z,84.9
2019-06-01T22:08:53.403Z,85.2
2019-06-01T22:10:50.718Z,86.5
2019-06-01T22:12:50.751Z,86.4
2019-06-01T22:14:49.943Z,86.7
2019-06-01T22:16:50.311Z,87.4
2019-06-01T22:18:50.384Z,87.3
2019-06-01T22:20:50.474Z,87.7
2019-06-01T22:22:50.596Z,87.6
2019-06-01T22:24:50.703Z,87.3
2019-06-01T22:26:49.977Z,86.9
2019-06-01T22:28:50.112Z,87.3
2019-06-01T22:30:50.314Z,87.3
2019-06-01T22:32:50.424Z,88.7
2019-06-01T22:34:50.012Z,88.7
2019-06-01T22:36:50.317Z,89.4
2019-06-01T22:38:50.366Z,89.2
2019-06-01T22:40:50.424Z,89.9
2019-06-01T22:42:50.528Z,89.5
2019-06-01T22:44:50.624Z,89.6
2019-06-01T22:46:50.003Z,90.0
2019-06-01T22:48:50.138Z,90.7
2019-06-01T22:50:50.441Z,90.5
2019-06-01T22:52:50.495Z,91.0
2019-06-01T22:54:50.617Z,91.2
2019-06-01T22:56:50.028Z,92.0
2019-06-01T22:58:50.107Z,91.6
2019-06-01T23:00:50.402Z,92.4
2019-06-01T23:02:50.495Z,92.4
2019-06-01T23:04:50.159Z,92.7
2019-06-01T23:06:50.550Z,92.4
2019-06-01T23:08:50.710Z,92.4
2019-06-01T23:10:50.756Z,92.4
2019-06-01T23:12:49.785Z,92.4
2019-06-01T23:14:49.872Z,91.8
2019-06-01T23:16:50.150Z,92.2
2019-06-01T23:18:50.266Z,92.8
2019-06-01T23:20:50.377Z,92.6
2019-06-01T23:22:50.469Z,92.7
2019-06-01T23:24:50.696Z,93.3
2019-06-01T23:26:49.964Z,93.9
2019-06-01T23:28:50.143Z,94.1
2019-06-01T23:30:50.196Z,94.3
2019-06-01T23:32:50.324Z,94.4
2019-06-01T23:34:49.993Z,94.8
2019-06-01T23:36:50.291Z,95.4
2019-06-01T23:38:50.398Z,95.4
2019-06-01T23:40:50.564Z,95.3
2019-06-01T23:42:50.640Z,95.4
2019-06-01T23:44:50.709Z,95.3
2019-06-01T23:46:50.015Z,95.3
2019-06-01T23:48:50.022Z,95.3
2019-06-01T23:50:50.242Z,95.4
2019-06-01T23:52:50.429Z,95.2
2019-06-01T23:54:50.507Z,95.4
2019-06-01T23:56:50.670Z,95.6
2019-06-01T23:58:49.846Z,94.8
